sensor_id;sensor_type;location;lat;lon;timestamp;P1;durP1;ratioP1;P2;durP2;ratioP2
12110;SDS011;6119;52.372;8.990;2022-08-03T00:01:19;5.10;;;4.60;;
12110;SDS011;6119;52.372;8.990;2022-08-03T00:04:06;6.13;;;5.20;;
12110;SDS011;6119;52.372;8.990;2022-08-03T00:06:53;5.47;;;4.97;;
12110;SDS011;6119;52.372;8.990;2022-08-03T00:09:39;7.00;;;4.80;;
12110;SDS011;6119;52.372;8.990;2022-08-03T00:12:27;5.60;;;4.97;;
12110;SDS011;6119;52.372;8.990;2022-08-03T00:15:14;5.70;;;5.20;;
12110;SDS011;6119;52.372;8.990;2022-08-03T00:18:01;5.80;;;5.30;;
12110;SDS011;6119;52.372;8.990;2022-08-03T00:20:47;5.70;;;5.20;;
12110;SDS011;6119;52.372;8.990;2022-08-03T00:23:33;5.90;;;5.37;;
12110;SDS011;6119;52.372;8.990;2022-08-03T00:26:36;6.23;;;5.63;;
12110;SDS011;6119;52.372;8.990;2022-08-03T00:29:24;6.37;;;5.20;;
12110;SDS011;6119;52.372;8.990;2022-08-03T00:32:10;5.33;;;4.83;;
12110;SDS011;6119;52.372;8.990;2022-08-03T00:34:57;6.33;;;5.57;;
12110;SDS011;6119;52.372;8.990;2022-08-03T00:37:50;6.07;;;5.40;;
12110;SDS011;6119;52.372;8.990;2022-08-03T00:40:37;6.90;;;5.33;;
12110;SDS011;6119;52.372;8.990;2022-08-03T00:43:24;6.40;;;5.43;;
12110;SDS011;6119;52.372;8.990;2022-08-03T00:46:13;5.60;;;4.90;;
12110;SDS011;6119;52.372;8.990;2022-08-03T00:49:05;6.13;;;5.53;;
12110;SDS011;6119;52.372;8.990;2022-08-03T00:51:53;5.87;;;5.27;;
12110;SDS011;6119;52.372;8.990;2022-08-03T00:54:40;6.33;;;5.03;;
12110;SDS011;6119;52.372;8.990;2022-08-03T00:57:26;6.73;;;5.33;;
12110;SDS011;6119;52.372;8.990;2022-08-03T01:00:16;5.80;;;5.20;;
12110;SDS011;6119;52.372;8.990;2022-08-03T01:03:08;6.20;;;5.60;;
12110;SDS011;6119;52.372;8.990;2022-08-03T01:05:56;6.40;;;5.30;;
12110;SDS011;6119;52.372;8.990;2022-08-03T01:08:51;7.30;;;5.60;;
12110;SDS011;6119;52.372;8.990;2022-08-03T01:11:45;7.97;;;4.97;;
12110;SDS011;6119;52.372;8.990;2022-08-03T01:14:48;5.67;;;5.17;;
12110;SDS011;6119;52.372;8.990;2022-08-03T01:17:39;5.97;;;5.47;;
12110;SDS011;6119;52.372;8.990;2022-08-03T01:20:33;6.37;;;5.13;;
12110;SDS011;6119;52.372;8.990;2022-08-03T01:23:29;5.90;;;5.33;;
12110;SDS011;6119;52.372;8.990;2022-08-03T01:26:27;6.33;;;4.80;;
12110;SDS011;6119;52.372;8.990;2022-08-03T01:29:46;5.47;;;4.97;;
12110;SDS011;6119;52.372;8.990;2022-08-03T01:32:55;6.00;;;5.40;;
12110;SDS011;6119;52.372;8.990;2022-08-03T01:35:49;7.67;;;5.27;;
12110;SDS011;6119;52.372;8.990;2022-08-03T01:38:40;6.03;;;4.93;;
12110;SDS011;6119;52.372;8.990;2022-08-03T01:41:32;5.50;;;5.00;;
12110;SDS011;6119;52.372;8.990;2022-08-03T01:44:21;5.67;;;5.17;;
12110;SDS011;6119;52.372;8.990;2022-08-03T01:47:15;8.27;;;4.90;;
12110;SDS011;6119;52.372;8.990;2022-08-03T01:50:06;6.00;;;5.50;;
12110;SDS011;6119;52.372;8.990;2022-08-03T01:52:55;10.13;;;5.00;;
12110;SDS011;6119;52.372;8.990;2022-08-03T01:55:43;6.23;;;5.70;;
12110;SDS011;6119;52.372;8.990;2022-08-03T01:58:33;5.27;;;4.87;;
12110;SDS011;6119;52.372;8.990;2022-08-03T02:01:21;7.40;;;6.13;;
12110;SDS011;6119;52.372;8.990;2022-08-03T02:04:31;7.87;;;6.00;;
12110;SDS011;6119;52.372;8.990;2022-08-03T02:07:19;6.83;;;5.63;;
12110;SDS011;6119;52.372;8.990;2022-08-03T02:10:06;7.30;;;6.37;;
12110;SDS011;6119;52.372;8.990;2022-08-03T02:12:56;7.07;;;5.57;;
12110;SDS011;6119;52.372;8.990;2022-08-03T02:15:45;6.07;;;5.57;;
12110;SDS011;6119;52.372;8.990;2022-08-03T02:18:33;6.93;;;5.83;;
12110;SDS011;6119;52.372;8.990;2022-08-03T02:21:24;5.93;;;5.43;;
12110;SDS011;6119;52.372;8.990;2022-08-03T02:24:32;8.30;;;6.03;;
12110;SDS011;6119;52.372;8.990;2022-08-03T02:27:20;5.87;;;5.37;;
12110;SDS011;6119;52.372;8.990;2022-08-03T02:30:08;7.53;;;5.70;;
12110;SDS011;6119;52.372;8.990;2022-08-03T02:32:57;6.60;;;6.00;;
12110;SDS011;6119;52.372;8.990;2022-08-03T02:35:46;6.43;;;5.83;;
12110;SDS011;6119;52.372;8.990;2022-08-03T02:38:36;6.13;;;5.40;;
12110;SDS011;6119;52.372;8.990;2022-08-03T02:41:27;5.60;;;5.10;;
12110;SDS011;6119;52.372;8.990;2022-08-03T02:44:19;6.13;;;5.53;;
12110;SDS011;6119;52.372;8.990;2022-08-03T02:47:09;6.10;;;5.57;;
12110;SDS011;6119;52.372;8.990;2022-08-03T02:49:59;7.27;;;5.20;;
12110;SDS011;6119;52.372;8.990;2022-08-03T02:52:47;6.00;;;5.40;;
12110;SDS011;6119;52.372;8.990;2022-08-03T02:55:37;8.73;;;5.63;;
12110;SDS011;6119;52.372;8.990;2022-08-03T02:58:30;6.13;;;5.53;;
12110;SDS011;6119;52.372;8.990;2022-08-03T03:01:18;6.40;;;4.90;;
12110;SDS011;6119;52.372;8.990;2022-08-03T03:04:05;7.07;;;4.90;;
12110;SDS011;6119;52.372;8.990;2022-08-03T03:06:56;5.40;;;4.73;;
12110;SDS011;6119;52.372;8.990;2022-08-03T03:09:45;6.60;;;5.47;;
12110;SDS011;6119;52.372;8.990;2022-08-03T03:12:34;5.47;;;4.97;;
12110;SDS011;6119;52.372;8.990;2022-08-03T03:15:23;6.20;;;5.60;;
12110;SDS011;6119;52.372;8.990;2022-08-03T03:18:11;8.37;;;5.20;;
12110;SDS011;6119;52.372;8.990;2022-08-03T03:21:06;5.47;;;4.97;;
12110;SDS011;6119;52.372;8.990;2022-08-03T03:23:54;5.83;;;5.00;;
12110;SDS011;6119;52.372;8.990;2022-08-03T03:26:41;6.20;;;5.43;;
12110;SDS011;6119;52.372;8.990;2022-08-03T03:29:29;5.33;;;4.80;;
12110;SDS011;6119;52.372;8.990;2022-08-03T03:32:23;5.80;;;5.10;;
12110;SDS011;6119;52.372;8.990;2022-08-03T03:35:11;5.60;;;5.10;;
12110;SDS011;6119;52.372;8.990;2022-08-03T03:37:59;5.50;;;4.93;;
12110;SDS011;6119;52.372;8.990;2022-08-03T03:40:46;5.47;;;4.97;;
12110;SDS011;6119;52.372;8.990;2022-08-03T03:43:32;5.47;;;4.97;;
12110;SDS011;6119;52.372;8.990;2022-08-03T03:46:21;7.23;;;5.20;;
12110;SDS011;6119;52.372;8.990;2022-08-03T03:49:07;5.93;;;5.43;;
12110;SDS011;6119;52.372;8.990;2022-08-03T03:51:55;6.50;;;5.27;;
12110;SDS011;6119;52.372;8.990;2022-08-03T03:54:41;5.40;;;4.90;;
12110;SDS011;6119;52.372;8.990;2022-08-03T03:57:29;5.83;;;5.00;;
12110;SDS011;6119;52.372;8.990;2022-08-03T04:00:17;7.60;;;4.93;;
12110;SDS011;6119;52.372;8.990;2022-08-03T04:03:05;6.77;;;4.73;;
12110;SDS011;6119;52.372;8.990;2022-08-03T04:05:52;6.23;;;5.33;;
12110;SDS011;6119;52.372;8.990;2022-08-03T04:08:56;6.07;;;5.47;;
12110;SDS011;6119;52.372;8.990;2022-08-03T04:12:08;6.97;;;5.23;;
12110;SDS011;6119;52.372;8.990;2022-08-03T04:14:56;6.10;;;5.60;;
12110;SDS011;6119;52.372;8.990;2022-08-03T04:17:43;6.40;;;5.77;;
12110;SDS011;6119;52.372;8.990;2022-08-03T04:20:33;11.37;;;5.63;;
12110;SDS011;6119;52.372;8.990;2022-08-03T04:23:23;6.97;;;5.70;;
12110;SDS011;6119;52.372;8.990;2022-08-03T04:26:12;6.60;;;5.90;;
12110;SDS011;6119;52.372;8.990;2022-08-03T04:29:04;7.80;;;5.93;;
12110;SDS011;6119;52.372;8.990;2022-08-03T04:31:51;6.03;;;5.40;;
12110;SDS011;6119;52.372;8.990;2022-08-03T04:34:40;6.37;;;5.50;;
12110;SDS011;6119;52.372;8.990;2022-08-03T04:37:31;7.07;;;5.50;;
12110;SDS011;6119;52.372;8.990;2022-08-03T04:40:21;8.70;;;5.10;;
12110;SDS011;6119;52.372;8.990;2022-08-03T04:43:13;6.10;;;5.00;;
12110;SDS011;6119;52.372;8.990;2022-08-03T04:46:03;5.73;;;5.13;;
12110;SDS011;6119;52.372;8.990;2022-08-03T04:48:51;7.63;;;5.50;;
12110;SDS011;6119;52.372;8.990;2022-08-03T04:51:38;5.80;;;5.30;;
12110;SDS011;6119;52.372;8.990;2022-08-03T04:54:27;5.40;;;4.63;;
12110;SDS011;6119;52.372;8.990;2022-08-03T04:57:14;6.83;;;5.13;;
12110;SDS011;6119;52.372;8.990;2022-08-03T05:00:07;7.80;;;5.00;;
12110;SDS011;6119;52.372;8.990;2022-08-03T05:02:54;5.73;;;4.73;;
12110;SDS011;6119;52.372;8.990;2022-08-03T05:05:41;5.90;;;5.00;;
12110;SDS011;6119;52.372;8.990;2022-08-03T05:08:34;6.00;;;5.27;;
12110;SDS011;6119;52.372;8.990;2022-08-03T05:11:34;5.67;;;5.03;;
12110;SDS011;6119;52.372;8.990;2022-08-03T05:14:22;5.40;;;4.90;;
12110;SDS011;6119;52.372;8.990;2022-08-03T05:17:12;5.63;;;5.07;;
12110;SDS011;6119;52.372;8.990;2022-08-03T05:19:58;6.73;;;4.23;;
12110;SDS011;6119;52.372;8.990;2022-08-03T05:22:46;5.83;;;4.60;;
12110;SDS011;6119;52.372;8.990;2022-08-03T05:25:33;6.57;;;4.77;;
12110;SDS011;6119;52.372;8.990;2022-08-03T05:28:21;5.23;;;4.03;;
12110;SDS011;6119;52.372;8.990;2022-08-03T05:31:08;5.73;;;5.13;;
12110;SDS011;6119;52.372;8.990;2022-08-03T05:33:56;7.10;;;4.77;;
12110;SDS011;6119;52.372;8.990;2022-08-03T05:36:42;6.63;;;4.67;;
12110;SDS011;6119;52.372;8.990;2022-08-03T05:39:29;4.97;;;4.50;;
12110;SDS011;6119;52.372;8.990;2022-08-03T05:42:15;7.43;;;4.97;;
12110;SDS011;6119;52.372;8.990;2022-08-03T05:45:04;6.37;;;4.37;;
12110;SDS011;6119;52.372;8.990;2022-08-03T05:47:58;5.93;;;4.20;;
12110;SDS011;6119;52.372;8.990;2022-08-03T05:50:44;5.33;;;4.83;;
12110;SDS011;6119;52.372;8.990;2022-08-03T05:53:32;6.53;;;4.57;;
12110;SDS011;6119;52.372;8.990;2022-08-03T05:56:20;7.50;;;4.77;;
12110;SDS011;6119;52.372;8.990;2022-08-03T05:59:08;4.30;;;3.90;;
12110;SDS011;6119;52.372;8.990;2022-08-03T06:02:16;6.53;;;4.47;;
12110;SDS011;6119;52.372;8.990;2022-08-03T06:05:03;7.97;;;4.33;;
12110;SDS011;6119;52.372;8.990;2022-08-03T06:07:50;4.87;;;4.27;;
12110;SDS011;6119;52.372;8.990;2022-08-03T06:10:36;5.17;;;4.07;;
12110;SDS011;6119;52.372;8.990;2022-08-03T06:13:23;6.23;;;4.33;;
12110;SDS011;6119;52.372;8.990;2022-08-03T06:16:10;6.23;;;4.10;;
12110;SDS011;6119;52.372;8.990;2022-08-03T06:18:58;6.27;;;4.03;;
12110;SDS011;6119;52.372;8.990;2022-08-03T06:21:44;7.23;;;4.13;;
12110;SDS011;6119;52.372;8.990;2022-08-03T06:24:31;5.00;;;3.70;;
12110;SDS011;6119;52.372;8.990;2022-08-03T06:27:18;4.70;;;3.97;;
12110;SDS011;6119;52.372;8.990;2022-08-03T06:30:20;4.07;;;3.60;;
12110;SDS011;6119;52.372;8.990;2022-08-03T06:33:07;5.50;;;3.40;;
12110;SDS011;6119;52.372;8.990;2022-08-03T06:35:54;5.47;;;3.70;;
12110;SDS011;6119;52.372;8.990;2022-08-03T06:38:41;4.87;;;3.47;;
12110;SDS011;6119;52.372;8.990;2022-08-03T06:41:28;4.93;;;3.43;;
12110;SDS011;6119;52.372;8.990;2022-08-03T06:44:21;3.40;;;3.10;;
12110;SDS011;6119;52.372;8.990;2022-08-03T06:47:08;3.77;;;2.90;;
12110;SDS011;6119;52.372;8.990;2022-08-03T06:49:54;3.43;;;3.00;;
12110;SDS011;6119;52.372;8.990;2022-08-03T06:53:03;3.33;;;2.73;;
12110;SDS011;6119;52.372;8.990;2022-08-03T06:55:50;2.97;;;2.77;;
12110;SDS011;6119;52.372;8.990;2022-08-03T06:58:39;4.40;;;3.00;;
12110;SDS011;6119;52.372;8.990;2022-08-03T07:01:25;7.20;;;3.37;;
12110;SDS011;6119;52.372;8.990;2022-08-03T07:04:12;3.87;;;2.60;;
12110;SDS011;6119;52.372;8.990;2022-08-03T07:06:58;2.73;;;2.53;;
12110;SDS011;6119;52.372;8.990;2022-08-03T07:09:46;4.97;;;3.00;;
12110;SDS011;6119;52.372;8.990;2022-08-03T07:12:42;2.60;;;2.40;;
12110;SDS011;6119;52.372;8.990;2022-08-03T07:15:40;3.43;;;3.13;;
12110;SDS011;6119;52.372;8.990;2022-08-03T07:18:39;6.43;;;2.87;;
12110;SDS011;6119;52.372;8.990;2022-08-03T07:21:26;5.77;;;2.80;;
12110;SDS011;6119;52.372;8.990;2022-08-03T07:24:12;5.63;;;2.63;;
12110;SDS011;6119;52.372;8.990;2022-08-03T07:27:00;2.87;;;2.43;;
12110;SDS011;6119;52.372;8.990;2022-08-03T07:29:47;2.80;;;2.60;;
12110;SDS011;6119;52.372;8.990;2022-08-03T07:32:33;5.07;;;2.30;;
12110;SDS011;6119;52.372;8.990;2022-08-03T07:35:34;4.30;;;2.70;;
12110;SDS011;6119;52.372;8.990;2022-08-03T07:38:20;3.73;;;2.53;;
12110;SDS011;6119;52.372;8.990;2022-08-03T07:41:07;2.87;;;2.50;;
12110;SDS011;6119;52.372;8.990;2022-08-03T07:43:54;4.00;;;2.43;;
12110;SDS011;6119;52.372;8.990;2022-08-03T07:46:41;2.70;;;2.50;;
12110;SDS011;6119;52.372;8.990;2022-08-03T07:49:28;2.90;;;2.20;;
12110;SDS011;6119;52.372;8.990;2022-08-03T07:52:15;10.37;;;2.70;;
12110;SDS011;6119;52.372;8.990;2022-08-03T07:55:19;2.90;;;2.40;;
12110;SDS011;6119;52.372;8.990;2022-08-03T07:58:08;3.30;;;1.97;;
12110;SDS011;6119;52.372;8.990;2022-08-03T08:00:57;2.67;;;2.10;;
12110;SDS011;6119;52.372;8.990;2022-08-03T08:03:44;2.60;;;2.33;;
12110;SDS011;6119;52.372;8.990;2022-08-03T08:06:37;5.23;;;1.90;;
12110;SDS011;6119;52.372;8.990;2022-08-03T08:09:23;3.20;;;2.30;;
12110;SDS011;6119;52.372;8.990;2022-08-03T08:12:13;3.00;;;1.90;;
12110;SDS011;6119;52.372;8.990;2022-08-03T08:15:00;2.83;;;1.93;;
12110;SDS011;6119;52.372;8.990;2022-08-03T08:17:49;3.23;;;2.23;;
12110;SDS011;6119;52.372;8.990;2022-08-03T08:20:37;3.07;;;2.23;;
12110;SDS011;6119;52.372;8.990;2022-08-03T08:23:26;5.10;;;2.13;;
12110;SDS011;6119;52.372;8.990;2022-08-03T08:26:27;6.00;;;1.93;;
12110;SDS011;6119;52.372;8.990;2022-08-03T08:29:13;7.23;;;2.10;;
12110;SDS011;6119;52.372;8.990;2022-08-03T08:32:00;4.87;;;2.20;;
12110;SDS011;6119;52.372;8.990;2022-08-03T08:34:47;5.43;;;2.20;;
12110;SDS011;6119;52.372;8.990;2022-08-03T08:37:34;2.33;;;2.13;;
12110;SDS011;6119;52.372;8.990;2022-08-03T08:40:21;3.03;;;2.10;;
12110;SDS011;6119;52.372;8.990;2022-08-03T08:43:08;2.83;;;2.00;;
12110;SDS011;6119;52.372;8.990;2022-08-03T08:45:54;2.80;;;2.13;;
12110;SDS011;6119;52.372;8.990;2022-08-03T08:48:43;2.93;;;2.03;;
12110;SDS011;6119;52.372;8.990;2022-08-03T08:51:34;2.57;;;2.20;;
12110;SDS011;6119;52.372;8.990;2022-08-03T08:54:44;3.90;;;2.00;;
12110;SDS011;6119;52.372;8.990;2022-08-03T08:57:32;2.70;;;2.00;;
12110;SDS011;6119;52.372;8.990;2022-08-03T09:00:28;2.47;;;2.00;;
12110;SDS011;6119;52.372;8.990;2022-08-03T09:03:15;6.07;;;2.10;;
12110;SDS011;6119;52.372;8.990;2022-08-03T09:06:14;4.33;;;2.27;;
12110;SDS011;6119;52.372;8.990;2022-08-03T09:09:02;5.47;;;2.30;;
12110;SDS011;6119;52.372;8.990;2022-08-03T09:11:50;2.30;;;2.10;;
12110;SDS011;6119;52.372;8.990;2022-08-03T09:14:48;5.03;;;2.10;;
12110;SDS011;6119;52.372;8.990;2022-08-03T09:17:55;4.27;;;2.30;;
12110;SDS011;6119;52.372;8.990;2022-08-03T09:20:43;7.17;;;2.10;;
12110;SDS011;6119;52.372;8.990;2022-08-03T09:23:32;3.63;;;2.60;;
12110;SDS011;6119;52.372;8.990;2022-08-03T09:26:49;5.80;;;1.83;;
12110;SDS011;6119;52.372;8.990;2022-08-03T09:29:37;3.17;;;1.70;;
12110;SDS011;6119;52.372;8.990;2022-08-03T09:32:24;4.10;;;2.10;;
12110;SDS011;6119;52.372;8.990;2022-08-03T09:35:11;3.53;;;2.07;;
12110;SDS011;6119;52.372;8.990;2022-08-03T09:38:11;5.43;;;2.23;;
12110;SDS011;6119;52.372;8.990;2022-08-03T09:40:59;3.50;;;2.30;;
12110;SDS011;6119;52.372;8.990;2022-08-03T09:43:46;3.77;;;1.73;;
12110;SDS011;6119;52.372;8.990;2022-08-03T09:46:48;2.47;;;1.90;;
12110;SDS011;6119;52.372;8.990;2022-08-03T09:49:35;2.33;;;1.90;;
12110;SDS011;6119;52.372;8.990;2022-08-03T09:52:22;5.43;;;2.10;;
12110;SDS011;6119;52.372;8.990;2022-08-03T09:55:35;4.22;;;1.83;;
12110;SDS011;6119;52.372;8.990;2022-08-03T09:58:43;2.55;;;1.90;;
12110;SDS011;6119;52.372;8.990;2022-08-03T10:01:32;5.07;;;1.83;;
12110;SDS011;6119;52.372;8.990;2022-08-03T10:04:21;4.20;;;1.70;;
12110;SDS011;6119;52.372;8.990;2022-08-03T10:07:09;4.07;;;2.00;;
12110;SDS011;6119;52.372;8.990;2022-08-03T10:09:57;5.13;;;2.40;;
12110;SDS011;6119;52.372;8.990;2022-08-03T10:13:04;2.65;;;1.90;;
12110;SDS011;6119;52.372;8.990;2022-08-03T10:15:51;7.07;;;2.20;;
12110;SDS011;6119;52.372;8.990;2022-08-03T10:18:59;2.03;;;1.83;;
12110;SDS011;6119;52.372;8.990;2022-08-03T10:21:46;3.20;;;2.17;;
12110;SDS011;6119;52.372;8.990;2022-08-03T10:24:35;4.13;;;2.55;;
12110;SDS011;6119;52.372;8.990;2022-08-03T10:27:24;4.95;;;1.90;;
12110;SDS011;6119;52.372;8.990;2022-08-03T10:30:16;4.35;;;2.22;;
12110;SDS011;6119;52.372;8.990;2022-08-03T10:33:12;3.85;;;2.15;;
12110;SDS011;6119;52.372;8.990;2022-08-03T10:36:23;5.32;;;2.03;;
12110;SDS011;6119;52.372;8.990;2022-08-03T10:39:17;2.53;;;1.92;;
12110;SDS011;6119;52.372;8.990;2022-08-03T10:42:06;3.92;;;2.00;;
12110;SDS011;6119;52.372;8.990;2022-08-03T10:45:03;6.18;;;1.98;;
12110;SDS011;6119;52.372;8.990;2022-08-03T10:47:52;2.35;;;1.88;;
12110;SDS011;6119;52.372;8.990;2022-08-03T10:50:41;3.65;;;1.75;;
12110;SDS011;6119;52.372;8.990;2022-08-03T10:53:36;3.28;;;1.80;;
12110;SDS011;6119;52.372;8.990;2022-08-03T10:56:38;4.10;;;1.70;;
12110;SDS011;6119;52.372;8.990;2022-08-03T10:59:58;4.35;;;1.60;;
12110;SDS011;6119;52.372;8.990;2022-08-03T11:03:05;3.17;;;2.03;;
12110;SDS011;6119;52.372;8.990;2022-08-03T11:05:55;3.90;;;2.28;;
12110;SDS011;6119;52.372;8.990;2022-08-03T11:09:14;2.72;;;1.95;;
12110;SDS011;6119;52.372;8.990;2022-08-03T11:12:02;2.78;;;1.75;;
12110;SDS011;6119;52.372;8.990;2022-08-03T11:15:15;3.80;;;2.05;;
12110;SDS011;6119;52.372;8.990;2022-08-03T11:18:18;2.85;;;1.83;;
12110;SDS011;6119;52.372;8.990;2022-08-03T11:21:10;4.63;;;1.90;;
12110;SDS011;6119;52.372;8.990;2022-08-03T11:23:57;4.25;;;1.88;;
12110;SDS011;6119;52.372;8.990;2022-08-03T11:26:53;4.05;;;2.22;;
12110;SDS011;6119;52.372;8.990;2022-08-03T11:30:03;2.70;;;2.50;;
12110;SDS011;6119;52.372;8.990;2022-08-03T11:32:53;4.30;;;2.35;;
12110;SDS011;6119;52.372;8.990;2022-08-03T11:35:56;3.25;;;2.08;;
12110;SDS011;6119;52.372;8.990;2022-08-03T11:42:10;3.17;;;1.92;;
12110;SDS011;6119;52.372;8.990;2022-08-03T11:45:29;2.17;;;2.00;;
12110;SDS011;6119;52.372;8.990;2022-08-03T11:48:16;2.47;;;1.90;;
12110;SDS011;6119;52.372;8.990;2022-08-03T11:51:02;8.63;;;2.05;;
12110;SDS011;6119;52.372;8.990;2022-08-03T11:53:50;3.33;;;2.30;;
12110;SDS011;6119;52.372;8.990;2022-08-03T11:56:44;2.92;;;1.98;;
12110;SDS011;6119;52.372;8.990;2022-08-03T11:59:34;2.33;;;2.05;;
12110;SDS011;6119;52.372;8.990;2022-08-03T12:02:22;6.82;;;2.20;;
12110;SDS011;6119;52.372;8.990;2022-08-03T12:05:09;4.72;;;2.55;;
12110;SDS011;6119;52.372;8.990;2022-08-03T12:07:55;3.40;;;2.08;;
12110;SDS011;6119;52.372;8.990;2022-08-03T12:10:49;5.07;;;2.33;;
12110;SDS011;6119;52.372;8.990;2022-08-03T12:13:37;7.40;;;2.30;;
12110;SDS011;6119;52.372;8.990;2022-08-03T12:16:47;3.75;;;2.33;;
12110;SDS011;6119;52.372;8.990;2022-08-03T12:19:40;3.08;;;1.83;;
12110;SDS011;6119;52.372;8.990;2022-08-03T12:22:30;4.88;;;2.30;;
12110;SDS011;6119;52.372;8.990;2022-08-03T12:25:21;3.88;;;2.05;;
12110;SDS011;6119;52.372;8.990;2022-08-03T12:28:22;3.83;;;2.10;;
12110;SDS011;6119;52.372;8.990;2022-08-03T12:31:21;1.77;;;1.67;;
12110;SDS011;6119;52.372;8.990;2022-08-03T12:34:10;2.35;;;2.15;;
12110;SDS011;6119;52.372;8.990;2022-08-03T12:36:57;2.53;;;2.05;;
12110;SDS011;6119;52.372;8.990;2022-08-03T12:39:48;5.80;;;2.08;;
12110;SDS011;6119;52.372;8.990;2022-08-03T12:42:49;3.92;;;2.08;;
12110;SDS011;6119;52.372;8.990;2022-08-03T12:45:35;2.10;;;1.90;;
12110;SDS011;6119;52.372;8.990;2022-08-03T12:48:21;4.50;;;2.22;;
12110;SDS011;6119;52.372;8.990;2022-08-03T12:51:13;4.28;;;2.10;;
12110;SDS011;6119;52.372;8.990;2022-08-03T12:54:00;3.10;;;1.92;;
12110;SDS011;6119;52.372;8.990;2022-08-03T12:56:57;4.07;;;2.05;;
12110;SDS011;6119;52.372;8.990;2022-08-03T12:59:45;3.45;;;1.77;;
12110;SDS011;6119;52.372;8.990;2022-08-03T13:02:37;4.22;;;2.30;;
12110;SDS011;6119;52.372;8.990;2022-08-03T13:05:30;1.73;;;1.63;;
12110;SDS011;6119;52.372;8.990;2022-08-03T13:08:18;3.60;;;2.10;;
12110;SDS011;6119;52.372;8.990;2022-08-03T13:11:19;2.75;;;1.58;;
12110;SDS011;6119;52.372;8.990;2022-08-03T13:14:27;3.13;;;2.25;;
12110;SDS011;6119;52.372;8.990;2022-08-03T13:17:13;2.20;;;2.00;;
12110;SDS011;6119;52.372;8.990;2022-08-03T13:20:01;3.75;;;2.05;;
12110;SDS011;6119;52.372;8.990;2022-08-03T13:22:48;2.47;;;2.15;;
12110;SDS011;6119;52.372;8.990;2022-08-03T13:25:37;2.00;;;1.77;;
12110;SDS011;6119;52.372;8.990;2022-08-03T13:28:39;3.70;;;2.13;;
12110;SDS011;6119;52.372;8.990;2022-08-03T13:31:26;1.98;;;1.75;;
12110;SDS011;6119;52.372;8.990;2022-08-03T13:34:13;2.55;;;1.90;;
12110;SDS011;6119;52.372;8.990;2022-08-03T13:37:06;2.75;;;2.08;;
12110;SDS011;6119;52.372;8.990;2022-08-03T13:39:54;7.25;;;2.20;;
12110;SDS011;6119;52.372;8.990;2022-08-03T13:42:47;4.63;;;1.95;;
12110;SDS011;6119;52.372;8.990;2022-08-03T13:45:34;4.82;;;1.80;;
12110;SDS011;6119;52.372;8.990;2022-08-03T13:48:20;4.22;;;2.20;;
12110;SDS011;6119;52.372;8.990;2022-08-03T13:51:21;3.88;;;2.33;;
12110;SDS011;6119;52.372;8.990;2022-08-03T13:54:07;3.60;;;2.45;;
12110;SDS011;6119;52.372;8.990;2022-08-03T13:56:54;6.82;;;2.35;;
12110;SDS011;6119;52.372;8.990;2022-08-03T14:00:03;3.10;;;2.00;;
12110;SDS011;6119;52.372;8.990;2022-08-03T14:02:50;3.17;;;2.05;;
12110;SDS011;6119;52.372;8.990;2022-08-03T14:05:42;2.88;;;2.22;;
12110;SDS011;6119;52.372;8.990;2022-08-03T14:08:29;3.35;;;2.17;;
12110;SDS011;6119;52.372;8.990;2022-08-03T14:11:16;2.25;;;1.73;;
12110;SDS011;6119;52.372;8.990;2022-08-03T14:14:03;4.07;;;2.38;;
12110;SDS011;6119;52.372;8.990;2022-08-03T14:16:50;7.60;;;2.70;;
12110;SDS011;6119;52.372;8.990;2022-08-03T14:19:40;3.70;;;2.50;;
12110;SDS011;6119;52.372;8.990;2022-08-03T14:22:37;2.75;;;2.30;;
12110;SDS011;6119;52.372;8.990;2022-08-03T14:25:24;5.55;;;2.30;;
12110;SDS011;6119;52.372;8.990;2022-08-03T14:28:11;3.85;;;2.13;;
12110;SDS011;6119;52.372;8.990;2022-08-03T14:30:58;4.78;;;2.42;;
12110;SDS011;6119;52.372;8.990;2022-08-03T14:33:45;6.10;;;2.42;;
12110;SDS011;6119;52.372;8.990;2022-08-03T14:36:32;3.53;;;2.08;;
12110;SDS011;6119;52.372;8.990;2022-08-03T14:39:19;3.10;;;2.00;;
12110;SDS011;6119;52.372;8.990;2022-08-03T14:42:06;5.93;;;1.90;;
12110;SDS011;6119;52.372;8.990;2022-08-03T14:44:53;3.72;;;2.35;;
12110;SDS011;6119;52.372;8.990;2022-08-03T14:47:47;4.78;;;2.22;;
12110;SDS011;6119;52.372;8.990;2022-08-03T14:50:56;2.00;;;1.80;;
12110;SDS011;6119;52.372;8.990;2022-08-03T14:53:43;3.65;;;2.03;;
12110;SDS011;6119;52.372;8.990;2022-08-03T14:56:30;2.80;;;1.73;;
12110;SDS011;6119;52.372;8.990;2022-08-03T14:59:17;5.38;;;2.20;;
12110;SDS011;6119;52.372;8.990;2022-08-03T15:02:04;2.20;;;1.88;;
12110;SDS011;6119;52.372;8.990;2022-08-03T15:05:00;3.33;;;1.98;;
12110;SDS011;6119;52.372;8.990;2022-08-03T15:07:47;2.47;;;1.88;;
12110;SDS011;6119;52.372;8.990;2022-08-03T15:10:34;3.40;;;2.42;;
12110;SDS011;6119;52.372;8.990;2022-08-03T15:13:29;2.42;;;1.88;;
12110;SDS011;6119;52.372;8.990;2022-08-03T15:16:15;3.25;;;2.28;;
12110;SDS011;6119;52.372;8.990;2022-08-03T15:19:01;3.05;;;2.15;;
12110;SDS011;6119;52.372;8.990;2022-08-03T15:22:08;3.58;;;2.00;;
12110;SDS011;6119;52.372;8.990;2022-08-03T15:24:58;5.22;;;1.90;;
12110;SDS011;6119;52.372;8.990;2022-08-03T15:27:44;2.60;;;2.20;;
12110;SDS011;6119;52.372;8.990;2022-08-03T15:30:47;3.58;;;2.17;;
12110;SDS011;6119;52.372;8.990;2022-08-03T15:33:37;6.10;;;2.05;;
12110;SDS011;6119;52.372;8.990;2022-08-03T15:36:23;1.70;;;1.60;;
12110;SDS011;6119;52.372;8.990;2022-08-03T15:39:10;4.10;;;3.10;;
12110;SDS011;6119;52.372;8.990;2022-08-03T15:41:58;3.58;;;1.90;;
12110;SDS011;6119;52.372;8.990;2022-08-03T15:44:45;5.03;;;2.38;;
12110;SDS011;6119;52.372;8.990;2022-08-03T15:47:31;5.18;;;2.13;;
12110;SDS011;6119;52.372;8.990;2022-08-03T15:50:18;3.80;;;2.22;;
12110;SDS011;6119;52.372;8.990;2022-08-03T15:53:05;4.75;;;2.20;;
12110;SDS011;6119;52.372;8.990;2022-08-03T15:55:51;3.30;;;2.50;;
12110;SDS011;6119;52.372;8.990;2022-08-03T15:58:39;3.33;;;2.35;;
12110;SDS011;6119;52.372;8.990;2022-08-03T16:01:46;3.67;;;2.30;;
12110;SDS011;6119;52.372;8.990;2022-08-03T16:04:33;2.33;;;1.92;;
12110;SDS011;6119;52.372;8.990;2022-08-03T16:07:19;3.15;;;2.25;;
12110;SDS011;6119;52.372;8.990;2022-08-03T16:10:46;2.55;;;2.13;;
12110;SDS011;6119;52.372;8.990;2022-08-03T16:13:34;4.13;;;2.17;;
12110;SDS011;6119;52.372;8.990;2022-08-03T16:16:42;5.43;;;2.00;;
12110;SDS011;6119;52.372;8.990;2022-08-03T16:19:30;4.22;;;2.30;;
12110;SDS011;6119;52.372;8.990;2022-08-03T16:22:17;7.68;;;2.03;;
12110;SDS011;6119;52.372;8.990;2022-08-03T16:25:07;4.32;;;2.00;;
12110;SDS011;6119;52.372;8.990;2022-08-03T16:27:59;4.28;;;2.08;;
12110;SDS011;6119;52.372;8.990;2022-08-03T16:30:52;3.28;;;2.15;;
12110;SDS011;6119;52.372;8.990;2022-08-03T16:33:40;3.90;;;2.65;;
12110;SDS011;6119;52.372;8.990;2022-08-03T16:36:26;4.65;;;2.85;;
12110;SDS011;6119;52.372;8.990;2022-08-03T16:39:18;3.40;;;2.60;;
12110;SDS011;6119;52.372;8.990;2022-08-03T16:42:05;4.72;;;2.58;;
12110;SDS011;6119;52.372;8.990;2022-08-03T16:44:52;3.80;;;2.70;;
12110;SDS011;6119;52.372;8.990;2022-08-03T16:47:38;3.70;;;2.78;;
12110;SDS011;6119;52.372;8.990;2022-08-03T16:50:26;2.70;;;2.33;;
12110;SDS011;6119;52.372;8.990;2022-08-03T16:53:13;4.03;;;2.15;;
12110;SDS011;6119;52.372;8.990;2022-08-03T16:56:01;3.25;;;2.33;;
12110;SDS011;6119;52.372;8.990;2022-08-03T16:58:54;5.55;;;2.42;;
12110;SDS011;6119;52.372;8.990;2022-08-03T17:01:40;9.02;;;2.85;;
12110;SDS011;6119;52.372;8.990;2022-08-03T17:04:31;3.47;;;2.15;;
12110;SDS011;6119;52.372;8.990;2022-08-03T17:07:25;4.38;;;2.20;;
12110;SDS011;6119;52.372;8.990;2022-08-03T17:10:14;7.40;;;2.58;;
12110;SDS011;6119;52.372;8.990;2022-08-03T17:13:11;2.22;;;2.03;;
12110;SDS011;6119;52.372;8.990;2022-08-03T17:16:06;5.88;;;2.30;;
12110;SDS011;6119;52.372;8.990;2022-08-03T17:18:56;5.18;;;1.92;;
12110;SDS011;6119;52.372;8.990;2022-08-03T17:21:48;4.22;;;2.20;;
12110;SDS011;6119;52.372;8.990;2022-08-03T17:24:44;3.80;;;2.47;;
12110;SDS011;6119;52.372;8.990;2022-08-03T17:27:35;4.38;;;2.25;;
12110;SDS011;6119;52.372;8.990;2022-08-03T17:30:42;3.58;;;2.40;;